Flight Track Log - Related Links

Times and Time Zones

All times are in EDT time to prevent confusion due to time zone crossing. See the N658FE flight status page for this flight to view local times or setup timezone preferences in your user account.

Time Position Orientation Groundspeed Altitude Reporting Facility
EDT Latitude Longitude Course Direction KTS MPH feet Rate Location/Type
Sun 04:56:50 PM 35.0500 -89.9833 360° North 143 165 1,100  Level KMEM
Sun 04:58:08 PM 35.1167 -89.9833 360° North 228 262 3,500 2,783 Climbing KMEM
Sun 04:59:08 PM 35.1833 -90.0000 348° North 262 302 7,500 3,231 Climbing KMEM
Sun 05:00:44 PM 35.3053 -90.0161 354° North 317 365 11,900 2,846 Climbing Memphis Center
Sun 05:01:44 PM 35.4136 -90.0233 357° North 331 381 14,900 3,100 Climbing Memphis Center
Sun 05:02:44 PM 35.5200 -90.0306 357° North 371 427 18,100 3,200 Climbing Memphis Center
Sun 05:03:44 PM 35.6286 -90.0506 351° North 388 447 21,300 2,700 Climbing Memphis Center
Sun 05:04:44 PM 35.7164 -90.1269 325° Northwest 379 436 23,500 2,100 Climbing Memphis Center
Sun 05:05:44 PM 35.8042 -90.2136 321° Northwest 379 436 25,500 1,850 Climbing Memphis Center
Sun 05:06:44 PM 35.8772 -90.3339 307° West 404 465 27,200 1,855 Climbing Memphis Center
Sun 05:08:29 PM 36.0031 -90.5203 310° West 442 509 30,600 2,000 Climbing Kansas City Center
Sun 05:08:44 PM 36.0314 -90.5700 305° West 441 507 31,200 1,120 Climbing Memphis Center
Sun 05:09:44 PM 36.1103 -90.6936 308° West 446 513 32,000 400 Climbing Memphis Center
Sun 05:10:44 PM 36.1892 -90.8172 308° West 451 519 32,000  Level Memphis Center
Sun 05:11:44 PM 36.2656 -90.9386 308° West 456 525 32,000  Level Memphis Center
Sun 05:12:44 PM 36.3442 -91.0603 309° West 451 519 32,000  Level Memphis Center
Sun 05:13:44 PM 36.4206 -91.1822 308° West 451 519 32,000  Level Memphis Center
Sun 05:14:44 PM 36.5011 -91.2967 311° West 451 519 32,000  Level Memphis Center
Sun 05:15:44 PM 36.5753 -91.4214 307° West 446 513 32,000  Level Memphis Center
Sun 05:17:47 PM 36.7211 -91.6492 309° West 430 495 32,000 259 Level Kansas City Center
Sun 05:18:49 PM 36.7967 -91.7675 309° West 432 497 32,800 919 Climbing Kansas City Center
Sun 05:19:51 PM 36.8708 -91.8889 307° West 436 502 33,900 581 Climbing Kansas City Center
Sun 05:20:53 PM 36.9472 -92.0103 308° West 441 507 34,000 48 Climbing Kansas City Center
Sun 05:21:55 PM 37.0600 -92.1164 323° Northwest 426 490 34,000  Level Kansas City Center
Sun 05:22:57 PM 37.1553 -92.2061 323° Northwest 424 488 34,000  Level Kansas City Center
Sun 05:24:00 PM 37.2563 -92.3063 322° Northwest  Level FlightAware Approximate
Sun 05:25:01 PM 37.3467 -92.3825 322° Northwest 424 488 34,000  Level Kansas City Center
Sun 05:26:03 PM 37.4406 -92.4708 323° Northwest 421 484 34,000  Level Kansas City Center
Sun 05:27:05 PM 37.5375 -92.5592 324° Northwest 422 486 34,000  Level Kansas City Center
Sun 05:28:07 PM 37.6342 -92.6500 323° Northwest 425 489 34,000  Level Kansas City Center
Sun 05:29:09 PM 37.7278 -92.7381 323° Northwest 429 494 34,000  Level Kansas City Center
Sun 05:34:47 PM 38.2940 -93.2740 323° Northwest 34,000  Level FlightAware ADS-B
Sun 05:36:17 PM 38.4430 -93.4180 323° Northwest 34,000  Level FlightAware ADS-B
Sun 05:37:02 PM 38.5170 -93.4890 323° Northwest 34,000  Level FlightAware ADS-B
Sun 05:37:42 PM 38.5820 -93.5510 323° Northwest 34,000  Level FlightAware ADS-B
Sun 05:38:27 PM 38.6580 -93.6260 322° Northwest 34,000  Level FlightAware ADS-B
Sun 05:39:07 PM 38.7240 -93.6890 323° Northwest 34,000  Level FlightAware ADS-B
Sun 05:39:47 PM 38.7840 -93.7480 323° Northwest 34,000  Level FlightAware ADS-B
Sun 05:40:32 PM 38.8620 -93.8240 323° Northwest 34,000  Level FlightAware ADS-B
Sun 05:41:12 PM 38.9260 -93.8870 323° Northwest 34,000  Level FlightAware ADS-B
Sun 05:41:57 PM 39.0020 -93.9610 323° Northwest 34,000  Level FlightAware ADS-B
Sun 05:42:37 PM 39.0690 -94.0270 323° Northwest 34,000  Level FlightAware ADS-B
Sun 05:43:17 PM 39.1340 -94.0910 323° Northwest 34,000  Level FlightAware ADS-B
Sun 05:44:02 PM 39.2060 -94.1620 323° Northwest 34,000  Level FlightAware ADS-B
Sun 05:44:42 PM 39.2720 -94.2280 322° Northwest 34,000  Level FlightAware ADS-B
Sun 05:45:27 PM 39.3480 -94.3030 323° Northwest 34,000  Level FlightAware ADS-B
Sun 05:46:07 PM 39.4120 -94.3670 322° Northwest 34,000  Level FlightAware ADS-B
Sun 05:46:47 PM 39.4790 -94.4340 322° Northwest 34,000  Level FlightAware ADS-B
Sun 05:47:32 PM 39.5510 -94.5060 322° Northwest 34,000  Level FlightAware ADS-B
Sun 05:48:12 PM 39.6190 -94.5740 322° Northwest 34,000  Level FlightAware ADS-B
Sun 05:48:52 PM 39.6860 -94.6410 322° Northwest 34,000  Level FlightAware ADS-B
Sun 05:49:37 PM 39.7630 -94.7190 322° Northwest 34,000  Level FlightAware ADS-B
Sun 05:50:17 PM 39.8330 -94.7900 322° Northwest 34,000  Level FlightAware ADS-B
Sun 05:51:02 PM 39.9070 -94.8650 322° Northwest 34,000  Level FlightAware ADS-B
Sun 05:51:42 PM 39.9750 -94.9350 322° Northwest 34,000  Level FlightAware ADS-B
Sun 05:52:27 PM 40.0500 -95.0110 322° Northwest 34,000  Level FlightAware ADS-B
Sun 05:52:55 PM 40.0942 -95.0569 322° Northwest 464 534 34,000  Level Kansas City Center
Sun 05:53:27 PM 40.1428 -95.1083 321° Northwest 466 536 34,000  Level Minneapolis Center
Sun 05:54:29 PM 40.2439 -95.2133 322° Northwest 466 536 34,000  Level Minneapolis Center
Sun 05:55:31 PM 40.3469 -95.3183 322° Northwest 466 536 34,000  Level Minneapolis Center
Sun 05:57:03 PM 40.5375 -95.4361 335° Northwest 469 540 34,000  Level Kansas City Center
Sun 05:57:34 PM 40.5814 -95.4425 354° North 471 542 34,000  Level Minneapolis Center
Sun 05:58:36 PM 40.7306 -95.5017 343° North 470 541 34,000  Level Minneapolis Center
Sun 05:59:38 PM 40.8556 -95.5533 343° North 470 541 34,000  Level Minneapolis Center
Sun 06:00:40 PM 40.9803 -95.6053 343° North 471 542 34,000  Level Minneapolis Center
Sun 06:01:42 PM 41.1047 -95.6556 343° North 471 542 34,000  Level Minneapolis Center
Sun 06:02:43 PM 41.2472 -95.7142 343° North 475 547 34,000  Level Minneapolis Center
Sun 06:03:45 PM 41.3739 -95.7644 343° North 475 547 34,000  Level Minneapolis Center
Sun 06:04:47 PM 41.4839 -95.8586 327° Northwest 480 552 34,000  Level Minneapolis Center
Sun 06:05:49 PM 41.5531 -96.0086 302° West 477 549 34,000  Level Minneapolis Center
Sun 06:06:50 PM 41.6208 -96.1600 301° West 475 547 34,000  Level Minneapolis Center
Sun 06:07:52 PM 41.6881 -96.3106 301° West 474 545 34,000  Level Minneapolis Center
Sun 06:08:54 PM 41.7700 -96.4947 301° West 481 554 34,000  Level Minneapolis Center
Sun 06:09:56 PM 41.8383 -96.6469 301° West 479 551 34,000  Level Minneapolis Center
Sun 06:10:57 PM 41.9056 -96.8019 300° West 481 554 34,000  Level Minneapolis Center
Sun 06:12:11 PM 41.9736 -96.9553 301° West 480 552 34,000  Level Minneapolis Center
Sun 06:13:13 PM 42.0536 -97.1400 300° West 478 550 34,000  Level Minneapolis Center
Sun 06:14:15 PM 42.1211 -97.2939 301° West 477 549 34,000  Level Minneapolis Center
Sun 06:15:17 PM 42.1889 -97.4506 300° West 479 551 34,000  Level Minneapolis Center
Sun 06:17:26 PM 42.3328 -97.7906 300° West 474 545 34,000  Level Denver Center
Sun 06:18:22 PM 42.3992 -97.9439 300° West 473 544 34,000  Level Minneapolis Center
Sun 06:19:23 PM 42.4628 -98.0939 300° West 468 539 34,000  Level Minneapolis Center
Sun 06:20:25 PM 42.5253 -98.2425 300° West 459 528 34,000  Level Minneapolis Center
Sun 06:22:28 PM 42.6486 -98.5381 300° West 453 521 34,000  Level Minneapolis Center
Sun 06:23:30 PM 42.7203 -98.7128 299° West 445 512 34,000  Level Minneapolis Center
Sun 06:24:32 PM 42.7814 -98.8594 300° West 445 512 34,000  Level Minneapolis Center
Sun 06:25:33 PM 42.8403 -99.0044 299° West 441 507 34,000  Level Minneapolis Center
Sun 06:26:35 PM 42.8986 -99.1506 299° West 440 506 34,000  Level Minneapolis Center
Sun 06:27:25 PM 42.9478 -99.2686 300° West 446 513 34,000  Level Minneapolis Center
Sun 06:28:26 PM 43.0064 -99.4150 299° West 442 509 34,000  Level Minneapolis Center
Sun 06:29:28 PM 43.0656 -99.5606 299° West 438 504 34,000  Level Minneapolis Center
Sun 06:30:30 PM 43.1308 -99.7258 298° West 440 506 34,000  Level Minneapolis Center
Sun 06:31:32 PM 43.1889 -99.8717 299° West 437 503 34,000  Level Minneapolis Center
Sun 06:32:33 PM 43.2467 -100.0186 298° West 437 503 34,000  Level Minneapolis Center
Sun 06:33:35 PM 43.2922 -100.1381 298° West 439 505 34,000  Level Minneapolis Center
Sun 06:35:00 PM 43.3643 -100.3548 295° West  Level FlightAware Approximate
Sun 06:35:35 PM 43.4192 -100.4586 295° West 435 501 34,000  Level Denver Center
Sun 06:37:30 PM 43.5322 -100.7558 298° West 436 502 34,000  Level Minneapolis Center
Sun 06:38:32 PM 43.5886 -100.9022 298° West 434 499 34,000  Level Minneapolis Center
Sun 06:39:34 PM 43.6453 -101.0506 298° West 435 501 34,000  Level Minneapolis Center
Sun 06:40:36 PM 43.7019 -101.1997 298° West 436 502 34,000  Level Minneapolis Center
Sun 06:41:38 PM 43.7578 -101.3492 297° West 436 502 34,000  Level Minneapolis Center
Sun 06:42:40 PM 43.8144 -101.4994 298° West 439 505 34,000  Level Minneapolis Center
Sun 06:43:49 PM 43.8819 -101.6803 297° West 441 507 34,000  Level Denver Center
Sun 06:44:51 PM 43.9364 -101.8311 297° West 437 503 34,000  Level Denver Center
Sun 06:45:53 PM 43.9919 -101.9831 297° West 437 503 34,000  Level Denver Center
Sun 06:46:55 PM 44.0639 -102.1653 299° West 445 512 34,000  Level Denver Center
Sun 06:47:56 PM 44.1264 -102.3161 300° West 447 514 34,000  Level Denver Center
Sun 06:49:10 PM 44.1872 -102.4692 299° West 450 518 34,000  Level Denver Center
Sun 06:50:12 PM 44.2594 -102.6503 299° West 446 513 34,000  Level Denver Center
Sun 06:51:14 PM 44.3194 -102.8025 299° West 447 514 34,000  Level Denver Center
Sun 06:52:16 PM 44.3797 -102.9569 299° West 451 519 34,000  Level Denver Center
Sun 06:53:18 PM 44.4400 -103.1114 299° West 452 520 34,000  Level Denver Center
Sun 06:54:19 PM 44.5100 -103.2964 298° West 449 517 34,000  Level Denver Center
Sun 06:55:21 PM 44.5703 -103.4514 299° West 453 521 34,000  Level Denver Center
Sun 06:56:23 PM 44.6325 -103.6139 298° West 451 519 34,000  Level Denver Center
Sun 06:57:24 PM 44.6883 -103.7617 298° West 448 516 34,000  Level Denver Center
Sun 06:58:26 PM 44.7353 -103.8861 298° West 451 519 34,000  Level Denver Center
Sun 06:59:28 PM 44.8094 -104.0850 298° West 451 519 34,000  Level Denver Center
Sun 07:00:30 PM 44.8664 -104.2344 298° West 453 521 34,000  Level Denver Center
Sun 07:00:52 PM 44.8939 -104.3086 298° West 453 521 34,000  Level Salt Lake Center
Sun 07:01:54 PM 44.9511 -104.4589 298° West 454 522 34,000  Level Salt Lake Center
Sun 07:02:33 PM 44.9867 -104.5625 296° West 455 524 34,000  Level Denver Center
Sun 07:03:35 PM 45.0436 -104.7192 297° West 455 524 34,000  Level Denver Center
Sun 07:03:56 PM 45.0725 -104.7947 298° West 457 526 34,000  Level Salt Lake Center
Sun 07:04:36 PM 45.1092 -104.8964 297° West 455 524 34,000  Level Denver Center
Sun 07:04:58 PM 45.1275 -104.9456 298° West 453 521 34,000  Level Salt Lake Center
Sun 07:05:59 PM 45.1825 -105.0992 297° West 456 525 34,000  Level Salt Lake Center
Sun 07:07:00 PM 45.2464 -105.2775 297° West 456 525 34,000  Level Salt Lake Center
Sun 07:08:02 PM 45.3019 -105.4314 297° West 458 527 34,000  Level Salt Lake Center
Sun 07:09:03 PM 45.3653 -105.6106 297° West 457 526 34,000  Level Salt Lake Center
Sun 07:10:04 PM 45.4197 -105.7658 297° West 458 527 34,000  Level Salt Lake Center
Sun 07:11:06 PM 45.4753 -105.9231 297° West 465 535 34,000  Level Salt Lake Center
Sun 07:12:07 PM 45.5314 -106.1125 293° West 465 535 34,000  Level Salt Lake Center
Sun 07:13:08 PM 45.5700 -106.2817 288° West 468 539 34,000  Level Salt Lake Center
Sun 07:14:10 PM 45.6167 -106.4775 289° West 468 539 34,000  Level Salt Lake Center
Sun 07:15:11 PM 45.6536 -106.6428 288° West 462 532 34,000  Level Salt Lake Center
Sun 07:16:13 PM 45.7003 -106.8408 289° West 465 535 34,000  Level Salt Lake Center
Sun 07:17:14 PM 45.7422 -107.0125 289° West 473 544 34,000  Level Salt Lake Center
Sun 07:18:15 PM 45.7817 -107.1847 288° West 476 548 34,000  Level Salt Lake Center
Sun 07:19:17 PM 45.8281 -107.3847 288° West 477 549 34,000  Level Salt Lake Center
Sun 07:20:18 PM 45.8672 -107.5539 288° West 472 543 34,000  Level Salt Lake Center
Sun 07:21:20 PM 45.9119 -107.7522 288° West 470 541 34,000  Level Salt Lake Center
Sun 07:22:21 PM 45.9497 -107.9214 288° West 466 536 34,000  Level Salt Lake Center
Sun 07:23:23 PM 45.9944 -108.1214 288° West 470 541 34,000  Level Salt Lake Center
Sun 07:24:25 PM 46.0325 -108.2947 288° West 475 547 34,000  Level Salt Lake Center
Sun 07:25:26 PM 46.0703 -108.4678 288° West 475 547 34,000  Level Salt Lake Center
Sun 07:26:28 PM 46.1144 -108.6700 288° West 474 545 34,000  Level Salt Lake Center
Sun 07:27:29 PM 46.1514 -108.8450 287° West 477 549 34,000  Level Salt Lake Center
Sun 07:28:31 PM 46.1961 -109.0522 287° West 485 558 34,000  Level Salt Lake Center
Sun 07:29:32 PM 46.2342 -109.2314 287° West 488 562 34,000  Level Salt Lake Center
Sun 07:30:34 PM 46.2717 -109.4089 287° West 485 558 34,000  Level Salt Lake Center
Sun 07:31:35 PM 46.3161 -109.6222 287° West 494 568 34,000  Level Salt Lake Center
Sun 07:32:37 PM 46.3533 -109.8053 286° West 495 570 34,000  Level Salt Lake Center
Sun 07:33:39 PM 46.3961 -110.0222 286° West 502 578 34,000  Level Salt Lake Center
Sun 07:34:40 PM 46.4331 -110.2081 286° West 503 579 34,000  Level Salt Lake Center
Sun 07:35:42 PM 46.4758 -110.4264 286° West 504 580 34,000  Level Salt Lake Center
Sun 07:36:44 PM 46.5072 -110.5867 286° West 504 580 34,000 -49 Level Salt Lake Center
Sun 07:37:45 PM 46.5528 -110.8219 286° West 505 581 33,900  Descending Salt Lake Center
Sun 07:38:47 PM 46.5919 -111.0239 286° West 505 581 34,000 48 Climbing Salt Lake Center
Sun 07:39:49 PM 46.6289 -111.2183 286° West 509 586 34,000  Level Salt Lake Center
Sun 07:40:50 PM 46.6672 -111.4178 286° West 511 588 34,000  Level Salt Lake Center
Sun 07:41:52 PM 46.7039 -111.6181 285° West 510 587 34,000  Level Salt Lake Center
Sun 07:42:54 PM 46.7422 -111.8222 285° West 515 593 34,000  Level Salt Lake Center
Sun 07:43:55 PM 46.7781 -112.0253 285° West 516 594 34,000  Level Salt Lake Center
Sun 07:44:57 PM 46.8147 -112.2281 285° West 517 595 34,000  Level Salt Lake Center
Sun 07:45:59 PM 46.8589 -112.4694 285° West 514 592 34,000  Level Salt Lake Center
Sun 07:47:00 PM 46.8942 -112.6728 284° West 515 593 34,000  Level Salt Lake Center
Sun 07:48:02 PM 46.9289 -112.8764 284° West 516 594 34,000  Level Salt Lake Center
Sun 07:49:04 PM 46.9667 -113.0858 285° West 522 601 34,000  Level Salt Lake Center
Sun 07:50:05 PM 47.0006 -113.2886 284° West 513 590 34,000  Level Salt Lake Center
Sun 07:51:07 PM 47.0344 -113.4928 284° West 516 594 34,000  Level Salt Lake Center
Sun 07:52:08 PM 47.0683 -113.6961 284° West 512 589 34,000  Level Salt Lake Center
Sun 07:53:10 PM 47.1019 -113.9011 284° West 515 593 34,000 -48 Level Salt Lake Center
Sun 07:54:12 PM 47.1347 -114.1058 283° West 515 593 33,900  Descending Salt Lake Center
Sun 07:55:13 PM 47.1742 -114.3528 283° West 517 595 34,000 49 Climbing Salt Lake Center
Sun 07:56:15 PM 47.2061 -114.5558 283° West 511 588 34,000 -62 Level Salt Lake Center
Sun 07:56:50 PM 47.2247 -114.6786 283° West 510 587 33,900  Descending Seattle Center
Sun 07:57:51 PM 47.2575 -114.8839 283° West 512 589 34,000 49 Climbing Seattle Center
Sun 07:58:52 PM 47.2825 -115.0469 283° West 512 589 34,000  Level Seattle Center
Sun 07:59:52 PM 47.3194 -115.2928 283° West 512 589 34,000 -992 Level Seattle Center
Sun 08:00:53 PM 47.3489 -115.4953 282° West 507 583 32,000 -2,164 Descending Seattle Center
Sun 08:01:54 PM 47.3786 -115.6917 283° West 495 570 29,600 -2,213 Descending Seattle Center
Sun 08:02:55 PM 47.4028 -115.8625 282° West 478 550 27,500 -2,182 Descending Seattle Center
Sun 08:03:55 PM 47.4283 -116.0483 282° West 467 537 25,200 -2,331 Descending Seattle Center
Sun 08:04:56 PM 47.4539 -116.2275 282° West 453 521 22,800 -2,311 Descending Seattle Center
Sun 08:05:57 PM 47.4789 -116.4047 282° West 444 511 20,500 -2,508 Descending Seattle Center
Sun 08:06:58 PM 47.5078 -116.6103 282° West 430 495 17,700 -3,223 Descending Seattle Center
Sun 08:07:58 PM 47.5200 -116.7828 276° West 410 472 14,000 -3,521 Descending Seattle Center
Sun 08:08:59 PM 47.5317 -116.9431 276° West 392 451 10,600 -1,770 Descending Seattle Center
Sun 08:10:00 PM 47.5378 -117.0767 274° West 316 364 10,400 -1,082 Descending Seattle Center
Sun 08:11:01 PM 47.5444 -117.1972 275° West 291 335 8,400 -1,934 Descending Seattle Center
Sun 08:12:01 PM 47.5483 -117.2983 273° West 289 333 6,500 -1,289 Descending Seattle Center
Sun 08:13:02 PM 47.5550 -117.4100 275° West 275 316 5,800 -443 Descending Seattle Center
Sun 08:14:03 PM 47.5111 -117.5128 238° Southwest 261 300 5,600 -98 Descending Seattle Center
Sun 08:15:04 PM 47.4567 -117.5833 221° Southwest 262 302 5,600  Level Seattle Center
Sun 08:16:05 PM 47.4031 -117.6556 222° Southwest 262 302 5,600 -298 Level Seattle Center
Sun 08:17:05 PM 47.3647 -117.7389 236° Southwest 259 298 5,000 -298 Descending Seattle Center
Sun 08:18:06 PM 47.4050 -117.8047 312° West 221 254 5,000  Level Seattle Center
Sun 08:19:07 PM 47.4567 -117.7786 19° North 199 229 5,000  Level Seattle Center
Sun 08:20:08 PM 47.4967 -117.7211 44° Northeast 201 231 5,000 -197 Level Seattle Center
Sun 08:21:09 PM 47.5336 -117.6650 46° Northeast 191 220 4,600 -595 Descending Seattle Center
Sun 08:22:09 PM 47.5619 -117.6225 45° Northeast 148 170 3,800 -744 Descending Seattle Center
Sun 08:23:10 PM 47.5875 -117.5844 45° Northeast 132 152 3,100 -738 Descending Seattle Center
Sun 08:24:11 PM 47.6133 -117.5464 45° Northeast 131 151 2,300 -344 Descending Seattle Center
Sun 08:25:12 PM 47.6247 -117.5278 48° Northeast 86 99 2,400 98 Climbing Seattle Center

Login

Don't have an account? Register now (free) for customized features, flight alerts, and more!